^^
Station Historical Data
Daily Summary for March 09, 2018 Units:  Metric    English   Both
« Previous Day
Next Day »
Daily Weekly Monthly Yearly Custom
  High: Low: Average:
Temperature: -17.8 °C 17 °C 22.9 °C
Dew Point: -17.8 °C 1.8 °C 7.3 °C
Humidity: Humidity% 29% 37%
Wind Speed: 0km/h -1609.1km/h -5.3km/h
Wind Gust: 0km/h - -
Wind- - NE
Pressure: 0 hPa 1002.6 hPa -
Precipitation: 0 mm    
Historical Graphs
 
 
Tabular Data for March 09, 2018
Time Temperature Dew Point Pressure Wind Wind Speed Wind Gust Humidity Rainfall Rate (Hourly) solar Conditions
-17.8 °C -17.8 °C 0 hPa Calm     Humidity% 0 mm SoftwareType W/m2 Conditions
08:13 17.1 °C 1.9 °C 1007 hPa North -1609.1 km/h -1607.7 km/h 36% 0 mm meteobridge W/m2
08:19 17.1 °C 2.3 °C 1007 hPa North 19.5 km/h 20.9 km/h 37% 0 mm meteobridge W/m2
08:25 17 °C 1.8 °C 1007 hPa ENE 11.1 km/h 24.1 km/h 36% 0 mm meteobridge W/m2
08:31 17.2 °C 3.1 °C 1007.3 hPa NNE 16.3 km/h 20.9 km/h 39% 0 mm meteobridge W/m2
08:37 17.2 °C 4.8 °C 1007.3 hPa NNE 20.9 km/h 22.5 km/h 44% 0 mm meteobridge W/m2
08:43 17.1 °C 6 °C 1007.3 hPa NE 22.7 km/h 32.2 km/h 48% 0 mm meteobridge W/m2
08:50 17.2 °C 4.8 °C 1007.3 hPa NNE 14.3 km/h 20.9 km/h 44% 0 mm meteobridge W/m2
08:56 17.3 °C 6.2 °C 1007.3 hPa North 14.3 km/h 29 km/h 48% 0 mm meteobridge W/m2
09:02 17.6 °C 7.3 °C 1007.3 hPa North 14.3 km/h 22.5 km/h 51% 0 mm meteobridge W/m2
09:08 17.7 °C 7.7 °C 1007.3 hPa NE 9.7 km/h 19.3 km/h 52% 0 mm meteobridge W/m2
09:14 18 °C 7.4 °C 1007.3 hPa North 14.3 km/h 19.3 km/h 50% 0 mm meteobridge W/m2
09:20 18.2 °C 7.6 °C 1007.3 hPa North 16.3 km/h 19.3 km/h 50% 0 mm meteobridge W/m2
09:26 18.1 °C 7.5 °C 1007.3 hPa North 14.3 km/h 22.5 km/h 50% 0 mm meteobridge W/m2
09:32 18.3 °C 8 °C 1007.7 hPa NNW 9.7 km/h 20.9 km/h 51% 0 mm meteobridge W/m2
09:39 18.6 °C 8.6 °C 1007.7 hPa NNE 11.1 km/h 16.1 km/h 52% 0 mm meteobridge W/m2
09:45 18.8 °C 8.4 °C 1007.7 hPa North 17.7 km/h 20.9 km/h 51% 0 mm meteobridge W/m2
09:51 18.8 °C 8.4 °C 1007.7 hPa North 6.4 km/h 20.9 km/h 51% 0 mm meteobridge W/m2
09:57 19 °C 8.6 °C 1007.7 hPa North 9.7 km/h 17.7 km/h 51% 0 mm meteobridge W/m2
10:03 19.5 °C 8.2 °C 1007.7 hPa NNE 9.7 km/h 14.5 km/h 48% 0 mm meteobridge W/m2
10:09 19.6 °C 8.9 °C 1007.7 hPa NNE 11.1 km/h 16.1 km/h 50% 0 mm meteobridge W/m2
10:15 20 °C 9 °C 1007.7 hPa NNE 6.4 km/h 14.5 km/h 49% 0 mm meteobridge W/m2
10:21 20.4 °C 9.6 °C 1007.3 hPa North 9.7 km/h 16.1 km/h 50% 0 mm meteobridge W/m2
10:27 20.8 °C 9.7 °C 1007.3 hPa NNE 4.7 km/h 14.5 km/h 49% 0 mm meteobridge W/m2
10:34 21 °C 9.6 °C 1007.3 hPa NNE 3.2 km/h 14.5 km/h 48% 0 mm meteobridge W/m2
10:40 21.3 °C 9.5 °C 1007 hPa North 4.7 km/h 8 km/h 47% 0 mm meteobridge W/m2
10:46 21.6 °C 9.8 °C 1007 hPa North 4.7 km/h 14.5 km/h 47% 0 mm meteobridge W/m2
10:52 21.6 °C 9.8 °C 1007 hPa North 9.7 km/h 14.5 km/h 47% 0 mm meteobridge W/m2
10:58 21.9 °C 9.1 °C 1007 hPa Calm   4.8 km/h 44% 0 mm meteobridge W/m2
11:04 22.3 °C 9.5 °C 1007 hPa North 4.7 km/h 8 km/h 44% 0 mm meteobridge W/m2
11:10 22.2 °C 8.3 °C 1007 hPa North 1.4 km/h 8 km/h 41% 0 mm meteobridge W/m2
11:17 22.6 °C 8.7 °C 1007 hPa ENE 7.9 km/h 11.3 km/h 41% 0 mm meteobridge W/m2
11:23 23 °C 8.7 °C 1006.7 hPa Calm   4.8 km/h 40% 0 mm meteobridge W/m2
11:29 23.4 °C 8.7 °C 1006.7 hPa ENE 1.4 km/h 4.8 km/h 39% 0 mm meteobridge W/m2
11:35 24.2 °C 10.5 °C 1006.7 hPa ENE 1.4 km/h 3.2 km/h 42% 0 mm meteobridge W/m2
11:41 24.2 °C 8.2 °C 1006.7 hPa South 7.9 km/h 11.3 km/h 36% 0 mm meteobridge W/m2
11:47 23.9 °C 9.1 °C 1006.7 hPa SSE 6.4 km/h 6.4 km/h 39% 0 mm meteobridge W/m2
11:53 24.4 °C 8.8 °C 1006.7 hPa ESE 4.7 km/h 8 km/h 37% 0 mm meteobridge W/m2
11:59 24.3 °C 8.7 °C 1006.3 hPa South 4.7 km/h 9.7 km/h 37% 0 mm meteobridge W/m2
12:05 24.2 °C 6.9 °C 1006.7 hPa South 16.3 km/h 22.5 km/h 33% 0 mm meteobridge W/m2
12:11 23.8 °C 7.4 °C 1006.3 hPa SSE 4.7 km/h 9.7 km/h 35% 0 mm meteobridge W/m2
12:18 24.6 °C 7.7 °C 1006.3 hPa SSE 1.4 km/h 6.4 km/h 34% 0 mm meteobridge W/m2
12:24 25.2 °C 8.2 °C 1006.3 hPa ESE 11.1 km/h 11.3 km/h 34% 0 mm meteobridge W/m2
12:30 24.4 °C 7.9 °C 1006.3 hPa WSW 4.7 km/h 19.3 km/h 35% 0 mm meteobridge W/m2
12:36 24.1 °C 8.5 °C 1006.3 hPa South 6.4 km/h 8 km/h 37% 0 mm meteobridge W/m2
12:42 24.1 °C 8.9 °C 1006.3 hPa South 9.7 km/h 22.5 km/h 38% 0 mm meteobridge W/m2
12:48 24.2 °C 8.2 °C 1006 hPa SE 6.4 km/h 17.7 km/h 36% 0 mm meteobridge W/m2
12:54 24.6 °C 8.5 °C 1006 hPa South 6.4 km/h 11.3 km/h 36% 0 mm meteobridge W/m2
13:00 24.8 °C 9.1 °C 1005.6 hPa South 9.7 km/h 19.3 km/h 37% 0 mm meteobridge W/m2
13:06 24.9 °C 8.8 °C 1005.6 hPa SSW 3.2 km/h 9.7 km/h 36% 0 mm meteobridge W/m2
13:12 24.1 °C 7.3 °C 1005.6 hPa NW 3.2 km/h 25.7 km/h 34% 0 mm meteobridge W/m2
13:18 24.2 °C 8.6 °C 1005.6 hPa SE 11.1 km/h 20.9 km/h 37% 0 mm meteobridge W/m2
13:25 23.9 °C 7.5 °C 1005.6 hPa SSE 9.7 km/h 20.9 km/h 35% 0 mm meteobridge W/m2
13:31 24.3 °C 7.9 °C 1005.3 hPa South 13 km/h 16.1 km/h 35% 0 mm meteobridge W/m2
13:37 24.8 °C 8.3 °C 1005.3 hPa SSE 4.7 km/h 19.3 km/h 35% 0 mm meteobridge W/m2
13:43 25.3 °C 7.4 °C 1005 hPa SW 3.2 km/h 16.1 km/h 32% 0 mm meteobridge W/m2
13:49 25.1 °C 7.2 °C 1005 hPa South 6.4 km/h 19.3 km/h 32% 0 mm meteobridge W/m2
13:55 25.3 °C 7.9 °C 1004.6 hPa South 6.4 km/h 9.7 km/h 33% 0 mm meteobridge W/m2
14:01 25.5 °C 7.6 °C 1004.6 hPa SSW 16.3 km/h 19.3 km/h 32% 0 mm meteobridge W/m2
14:07 25.7 °C 8.2 °C 1004.6 hPa SSE 9.7 km/h 14.5 km/h 33% 0 mm meteobridge W/m2
14:14 26.3 °C 8.3 °C 1004.6 hPa SSE 6.4 km/h 8 km/h 32% 0 mm meteobridge W/m2
14:20 26.4 °C 8.4 °C 1004.6 hPa South 6.4 km/h 19.3 km/h 32% 0 mm meteobridge W/m2
14:26 25.7 °C 7.8 °C 1004.3 hPa SE 7.9 km/h 22.5 km/h 32% 0 mm meteobridge W/m2
14:32 25.8 °C 8.3 °C 1004.6 hPa SSW 17.7 km/h 25.7 km/h 33% 0 mm meteobridge W/m2
14:38 25.6 °C 6.7 °C 1004.3 hPa SSW 7.9 km/h 16.1 km/h 30% 0 mm meteobridge W/m2
14:44 26 °C 7.6 °C 1003.9 hPa South 9.7 km/h 20.9 km/h 31% 0 mm meteobridge W/m2
14:50 26 °C 7.1 °C 1003.9 hPa South 1.4 km/h 9.7 km/h 30% 0 mm meteobridge W/m2
14:56 26 °C 6.6 °C 1003.9 hPa South 17.7 km/h 17.7 km/h 29% 0 mm meteobridge W/m2
15:03 26.2 °C 8.2 °C 1003.9 hPa SSE 7.9 km/h 14.5 km/h 32% 0 mm meteobridge W/m2
15:09 25.9 °C 7.5 °C 1003.9 hPa South 7.9 km/h 12.9 km/h 31% 0 mm meteobridge W/m2
15:15 26.1 °C 7.6 °C 1003.6 hPa SSE 11.1 km/h 16.1 km/h 31% 0 mm meteobridge W/m2
15:21 26.3 °C 7.3 °C 1003.6 hPa SSE 9.7 km/h 20.9 km/h 30% 0 mm meteobridge W/m2
15:27 26.6 °C 7.6 °C 1003.3 hPa South 11.1 km/h 24.1 km/h 30% 0 mm meteobridge W/m2
15:34 26.2 °C 7.7 °C 1003.6 hPa South 16.3 km/h 25.7 km/h 31% 0 mm meteobridge W/m2
15:40 26.1 °C 7.2 °C 1003.3 hPa SSE 7.9 km/h 14.5 km/h 30% 0 mm meteobridge W/m2
15:46 26 °C 7.1 °C 1002.9 hPa SSW 14.3 km/h 19.3 km/h 30% 0 mm meteobridge W/m2
15:52 26.2 °C 8.7 °C 1002.9 hPa SSE 11.1 km/h 16.1 km/h 33% 0 mm meteobridge W/m2
15:58 26.4 °C 8.8 °C 1003.3 hPa South 24.1 km/h 27.4 km/h 33% 0 mm meteobridge W/m2
16:04 25.8 °C 8.3 °C 1002.9 hPa SSE 11.1 km/h 14.5 km/h 33% 0 mm meteobridge W/m2
16:10 26.2 °C 7.3 °C 1002.9 hPa South 16.3 km/h 17.7 km/h 30% 0 mm meteobridge W/m2
16:16 26.4 °C 7.9 °C 1002.9 hPa SSW 7.9 km/h 20.9 km/h 31% 0 mm meteobridge W/m2
16:22 26 °C 7.1 °C 1002.9 hPa SSW 14.3 km/h 22.5 km/h 30% 0 mm meteobridge W/m2
16:28 25.7 °C 7.3 °C 1002.9 hPa SSE 13 km/h 22.5 km/h 31% 0 mm meteobridge W/m2
16:34 25.8 °C 6.9 °C 1002.9 hPa South 6.4 km/h 17.7 km/h 30% 0 mm meteobridge W/m2
16:40 25.6 °C 6.7 °C 1002.9 hPa SSE 9.7 km/h 19.3 km/h 30% 0 mm meteobridge W/m2
16:46 25.4 °C 6.6 °C 1002.9 hPa South 11.1 km/h 20.9 km/h 30% 0 mm meteobridge W/m2
16:52 25.7 °C 6.3 °C 1002.9 hPa South 4.7 km/h 17.7 km/h 29% 0 mm meteobridge W/m2
16:58 26.1 °C 7.6 °C 1002.9 hPa SSW 24.1 km/h 27.4 km/h 31% 0 mm meteobridge W/m2
17:04 25.7 °C 6.8 °C 1002.9 hPa South 11.1 km/h 17.7 km/h 30% 0 mm meteobridge W/m2
17:11 25.6 °C 7.2 °C 1002.9 hPa South 11.1 km/h 14.5 km/h 31% 0 mm meteobridge W/m2
17:17 25.3 °C 7 °C 1002.9 hPa SSW 16.3 km/h 19.3 km/h 31% 0 mm meteobridge W/m2
17:23 25.2 °C 7.8 °C 1002.9 hPa SSE 6.4 km/h 16.1 km/h 33% 0 mm meteobridge W/m2
17:29 25.3 °C 7 °C 1002.9 hPa SSE 16.3 km/h 20.9 km/h 31% 0 mm meteobridge W/m2
17:35 25.1 °C 6.8 °C 1002.9 hPa SSW 6.4 km/h 16.1 km/h 31% 0 mm meteobridge W/m2
17:41 24.9 °C 6.6 °C 1002.6 hPa South 16.3 km/h 19.3 km/h 31% 0 mm meteobridge W/m2
17:47 24.8 °C 6.5 °C 1002.6 hPa South 7.9 km/h 17.7 km/h 31% 0 mm meteobridge W/m2
17:53 24.8 °C 6.5 °C 1002.6 hPa South 9.7 km/h 16.1 km/h 31% 0 mm meteobridge W/m2
18:00 24.6 °C 7.7 °C 1002.6 hPa South 4.7 km/h 14.5 km/h 34% 0 mm meteobridge W/m2
18:06 24.2 °C 7.3 °C 1002.6 hPa SSE 9.7 km/h 17.7 km/h 34% 0 mm meteobridge W/m2
18:12 23.9 °C 7.5 °C 1002.6 hPa South 6.4 km/h 19.3 km/h 35% 0 mm meteobridge W/m2
18:18 23.9 °C 7.1 °C 1002.6 hPa SSE 11.1 km/h 19.3 km/h 34% 0 mm meteobridge W/m2
18:24 23.7 °C 6.9 °C 1002.6 hPa South 9.7 km/h 25.7 km/h 34% 0 mm meteobridge W/m2
18:30 23.4 °C 7.1 °C 1002.6 hPa South 9.7 km/h 14.5 km/h 35% 0 mm meteobridge W/m2
18:36 23.2 °C 6.9 °C 1002.6 hPa SSE 4.7 km/h 17.7 km/h 35% 0 mm meteobridge W/m2
18:43 23.1 °C 7.2 °C 1002.6 hPa South 9.7 km/h 16.1 km/h 36% 0 mm meteobridge W/m2
18:49 22.8 °C 7.3 °C 1002.6 hPa South 6.4 km/h 16.1 km/h 37% 0 mm meteobridge W/m2
18:55 22.4 °C 7 °C 1002.6 hPa South 11.1 km/h 17.7 km/h 37% 0 mm meteobridge W/m2
19:01 22.1 °C 7.1 °C 1002.6 hPa South 6.4 km/h 9.7 km/h 38% 0 mm meteobridge W/m2
19:07 22.1 °C 7.1 °C 1002.6 hPa South 6.4 km/h 6.4 km/h 38% 0 mm meteobridge W/m2
19:14 22.1 °C 7.1 °C 1002.6 hPa South 6.4 km/h -1607.7 km/h 38% 0 mm meteobridge W/m2
Regenstein, Windhoek, Namibia
Compliments of Weather Underground - 2.5 mb